Codicote, United Kingdom
Current Conditions -  °F | °C
As of 9:20 AM on Wednesday 28 Jan 2015 (Local Time) from EGGW Reporting Station
Overcast Overcast  
Wind Chill: 41°   Ceiling: 600
Heat Index: 48°   Visibility: 4mi
Dew Point: 46°   Wind: 22mph
Humidity: 93%   Direction: 220°SW
Pressure: 29.53"   Gusts: 33mph
Location:  51.85°N, 0.24°W
Report Text: EGGW 280920Z 22019G29KT 7000 OVC006 09/08 Q1000
Loading
Personal Weather Stations






























Interactive Weather Map New forecast layout! Learn more

10-Day Weather Forecast

Advertisements
Track Severe Weather on mobile